Aviation WX

[Source: ADDS]
METAR
KFKL 181156Z AUTO 27006KT 2 1/2SM -SN BR OVC004 M01/M01 A2996 RMK AO2 SLP165 P0001 60003 70004 T10061011 11006 21022 53008 FZRANO =
KFKL 181126Z 1812/1912 23005KT 2SM -SN BR OVC004 FM181400 28006KT P6SM OVC006 FM181800 28007KT P6SM OVC012 FM190300 30004KT P6SM BKN025
TAF
KFKL 181126Z 1812/1912 23005KT 2SM -SN BR OVC004 FM181400 28006KT P6SM OVC006 FM181800 28007KT P6SM OVC012 FM190300 30004KT P6SM BKN025 =

Clarion Airport T-Shirts

small